Bastille Street — A8YZ6 — position and weather

sailwx.info

Track history (hours):
 
Tides and Currents Weather Stations Pressure Air Temp Water Temp Dewpoint Dewpoint Depression Visibility Wind Speed Wind Dir Waves Ship Positions

Bastille Street

Last reported at 2015-Sep-01 09:33 UTC. Time now 2015-Sep-01 10:11 UTC.
Position N 25°47' W 079°33'.

Length 180 m; draft 12.5 m.

MMSI: 636015161.

Date/timePositionNaut miles runAvg speedWind from/ knotsBaromVisibWave heightAir tempDewpointWater temp
2015-Sep-01 09:33N 25°47' W 079°33'1716.5
2015-Sep-01 08:33N 25°30' W 079°36'11513.5
2015-Sep-01 00:05N 23°57' W 080°49'  
2015-Aug-29 12:12N 30°03' W 090°41'0 0.0
2015-Aug-29 11:18N 30°03' W 090°41'0 0.0
2015-Aug-29 10:30N 30°03' W 090°41'0 0.0
2015-Aug-29 09:30N 30°03' W 090°41'0 0.0
2015-Aug-29 08:30N 30°03' W 090°41'  
2015-Aug-26 06:11N 30°03' W 090°31'0 0.0
2015-Aug-26 04:05N 30°03' W 090°31'0 0.0
2015-Aug-26 02:11N 30°03' W 090°31'0 0.0
2015-Aug-24 07:23N 30°03' W 090°31'0 0.0
2015-Aug-24 06:29N 30°03' W 090°31'0 0.1
2015-Aug-24 05:20N 30°03' W 090°31'7 6.8
2015-Aug-24 04:18N 29°59' W 090°24'6 7.4
2015-Aug-24 03:32N 29°58' W 090°18'8 7.8
2015-Aug-24 02:28N 29°56' W 090°08'7 7.3
2015-Aug-24 01:31N 29°57' W 090°00'4 3.7
2015-Aug-24 00:21N 29°53' W 089°58'  
Track history (hours):
 
Tides and Currents Weather Stations Pressure Air Temp Water Temp Dewpoint Dewpoint Depression Visibility Wind Speed Wind Dir Waves Ship Positions

Bastille Street

Last reported at 2015-Sep-01 09:33 UTC. Time now 2015-Sep-01 10:11 UTC.
Position N 25°47' W 079°33'.

Length 180 m; draft 12.5 m.

MMSI: 636015161.

Date/timePositionNaut miles runAvg speedWind from/ knotsBaromVisibWave heightAir tempDewpointWater temp
2015-Sep-01 09:33N 25°47' W 079°33'1716.5
2015-Sep-01 08:33N 25°30' W 079°36'11513.5
2015-Sep-01 00:05N 23°57' W 080°49'  
2015-Aug-29 12:12N 30°03' W 090°41'0 0.0
2015-Aug-29 11:18N 30°03' W 090°41'0 0.0
2015-Aug-29 10:30N 30°03' W 090°41'0 0.0
2015-Aug-29 09:30N 30°03' W 090°41'0 0.0
2015-Aug-29 08:30N 30°03' W 090°41'  
2015-Aug-26 06:11N 30°03' W 090°31'0 0.0
2015-Aug-26 04:05N 30°03' W 090°31'0 0.0
2015-Aug-26 02:11N 30°03' W 090°31'0 0.0
2015-Aug-24 07:23N 30°03' W 090°31'0 0.0
2015-Aug-24 06:29N 30°03' W 090°31'0 0.1
2015-Aug-24 05:20N 30°03' W 090°31'7 6.8
2015-Aug-24 04:18N 29°59' W 090°24'6 7.4
2015-Aug-24 03:32N 29°58' W 090°18'8 7.8
2015-Aug-24 02:28N 29°56' W 090°08'7 7.3
2015-Aug-24 01:31N 29°57' W 090°00'4 3.7
2015-Aug-24 00:21N 29°53' W 089°58'  

Dump ship's entire track history